CheckWX is a tool to help pilots better visualize weather data.  It is not intended as a substitute for an official pre-flight weather briefing.

18:05:18 UTC

KASE METAR
Aspen-Pitkin Co / Sardy Field Airport
Aspen, Colorado, USA
Current

12 mins ago

KASE 241753Z 13004KT 10SM CLR 12/M01 A3015 RMK AO2 SLP129 T01221011 10122 20000 58007
Observed
Apr-24 @ 17:53 UTC
Wind
  • 130° at 4 KTS
Visibility
10 SM
Flight Rules
VFR
Cloud Levels
  • Clear skies
Temperature
12°C / 54°F
Dewpoint
-1°C / 30°F
Humidity
41%
Altimeter
30.15" Hg
Pressure
1021.02 hPa
Previous

1 hour ago

KASE 241653Z 00000KT 10SM SCT060 10/M02 A3017 RMK AO2 SLP138 T01001022
Observed
Apr-24 @ 16:53 UTC
Visibility
10 SM
Flight Rules
VFR
Cloud Levels
  • Scattered at 6,000' AGL
Temperature
10°C / 50°F
Dewpoint
-2°C / 28°F
Humidity
43%
Altimeter
30.17" Hg
Pressure
1021.72 hPa
Previous

2 hours ago

KASE 241553Z 01004KT 10SM OVC060 08/M02 A3017 RMK AO2 SLP142 T00781022
Observed
Apr-24 @ 15:53 UTC
Wind
  • 010° at 4 KTS
Visibility
10 SM
Flight Rules
VFR
Cloud Levels
  • Overcast at 6,000' AGL
Temperature
C / 46°F
Dewpoint
-2°C / 28°F
Humidity
50%
Altimeter
30.17" Hg
Pressure
1021.72 hPa